sensor_id;sensor_type;location;lat;lon;timestamp;P1;durP1;ratioP1;P2;durP2;ratioP2
14681;SDS011;7429;52.498;13.480;2023-03-01T00:00:40;28.80;;;16.60;;
14681;SDS011;7429;52.498;13.480;2023-03-01T00:03:48;28.73;;;16.70;;
14681;SDS011;7429;52.498;13.480;2023-03-01T00:06:52;23.67;;;16.97;;
14681;SDS011;7429;52.498;13.480;2023-03-01T00:09:56;28.77;;;16.90;;
14681;SDS011;7429;52.498;13.480;2023-03-01T00:12:59;24.37;;;15.93;;
14681;SDS011;7429;52.498;13.480;2023-03-01T00:16:03;26.30;;;15.83;;
14681;SDS011;7429;52.498;13.480;2023-03-01T00:19:07;27.07;;;16.53;;
14681;SDS011;7429;52.498;13.480;2023-03-01T00:22:12;28.13;;;16.67;;
14681;SDS011;7429;52.498;13.480;2023-03-01T00:25:17;26.50;;;18.07;;
14681;SDS011;7429;52.498;13.480;2023-03-01T00:28:20;27.87;;;17.07;;
14681;SDS011;7429;52.498;13.480;2023-03-01T00:31:24;31.10;;;18.00;;
14681;SDS011;7429;52.498;13.480;2023-03-01T00:34:30;28.37;;;17.83;;
14681;SDS011;7429;52.498;13.480;2023-03-01T00:37:33;27.40;;;17.60;;
14681;SDS011;7429;52.498;13.480;2023-03-01T00:40:38;24.87;;;16.57;;
14681;SDS011;7429;52.498;13.480;2023-03-01T00:43:41;28.40;;;16.57;;
14681;SDS011;7429;52.498;13.480;2023-03-01T00:46:45;28.20;;;17.67;;
14681;SDS011;7429;52.498;13.480;2023-03-01T00:49:48;26.87;;;17.10;;
14681;SDS011;7429;52.498;13.480;2023-03-01T00:52:52;27.20;;;18.13;;
14681;SDS011;7429;52.498;13.480;2023-03-01T00:55:57;29.47;;;17.87;;
14681;SDS011;7429;52.498;13.480;2023-03-01T00:59:01;28.40;;;17.03;;
14681;SDS011;7429;52.498;13.480;2023-03-01T01:02:04;32.23;;;17.80;;
14681;SDS011;7429;52.498;13.480;2023-03-01T01:05:07;34.33;;;19.17;;
14681;SDS011;7429;52.498;13.480;2023-03-01T01:08:11;27.93;;;16.60;;
14681;SDS011;7429;52.498;13.480;2023-03-01T01:11:16;30.27;;;18.73;;
14681;SDS011;7429;52.498;13.480;2023-03-01T01:14:19;30.67;;;18.50;;
14681;SDS011;7429;52.498;13.480;2023-03-01T01:17:22;27.23;;;18.37;;
14681;SDS011;7429;52.498;13.480;2023-03-01T01:20:26;32.80;;;18.00;;
14681;SDS011;7429;52.498;13.480;2023-03-01T01:23:29;28.20;;;16.87;;
14681;SDS011;7429;52.498;13.480;2023-03-01T01:26:34;27.17;;;18.10;;
14681;SDS011;7429;52.498;13.480;2023-03-01T01:29:37;25.23;;;16.70;;
14681;SDS011;7429;52.498;13.480;2023-03-01T01:32:40;31.13;;;17.67;;
14681;SDS011;7429;52.498;13.480;2023-03-01T01:35:44;27.67;;;17.03;;
14681;SDS011;7429;52.498;13.480;2023-03-01T01:38:48;29.10;;;18.37;;
14681;SDS011;7429;52.498;13.480;2023-03-01T01:41:54;27.57;;;17.67;;
14681;SDS011;7429;52.498;13.480;2023-03-01T01:48:32;28.23;;;18.27;;
14681;SDS011;7429;52.498;13.480;2023-03-01T01:51:43;27.93;;;17.87;;
14681;SDS011;7429;52.498;13.480;2023-03-01T01:54:50;26.93;;;17.47;;
14681;SDS011;7429;52.498;13.480;2023-03-01T01:57:58;31.93;;;18.87;;
14681;SDS011;7429;52.498;13.480;2023-03-01T02:01:05;25.97;;;18.00;;
14681;SDS011;7429;52.498;13.480;2023-03-01T02:04:09;28.40;;;17.47;;
14681;SDS011;7429;52.498;13.480;2023-03-01T02:07:13;29.33;;;17.20;;
14681;SDS011;7429;52.498;13.480;2023-03-01T02:10:19;27.87;;;17.93;;
14681;SDS011;7429;52.498;13.480;2023-03-01T02:13:24;28.07;;;17.27;;
14681;SDS011;7429;52.498;13.480;2023-03-01T02:16:28;24.20;;;16.33;;
14681;SDS011;7429;52.498;13.480;2023-03-01T02:19:37;23.97;;;16.10;;
14681;SDS011;7429;52.498;13.480;2023-03-01T02:22:51;31.03;;;18.17;;
14681;SDS011;7429;52.498;13.480;2023-03-01T02:25:58;31.33;;;17.73;;
14681;SDS011;7429;52.498;13.480;2023-03-01T02:29:10;30.77;;;18.10;;
14681;SDS011;7429;52.498;13.480;2023-03-01T02:32:13;29.87;;;17.17;;
14681;SDS011;7429;52.498;13.480;2023-03-01T02:35:17;30.20;;;19.43;;
14681;SDS011;7429;52.498;13.480;2023-03-01T02:38:22;28.77;;;18.53;;
14681;SDS011;7429;52.498;13.480;2023-03-01T02:41:26;32.90;;;19.80;;
14681;SDS011;7429;52.498;13.480;2023-03-01T02:44:34;37.60;;;20.73;;
14681;SDS011;7429;52.498;13.480;2023-03-01T02:47:37;35.53;;;22.47;;
14681;SDS011;7429;52.498;13.480;2023-03-01T02:50:52;35.67;;;21.87;;
14681;SDS011;7429;52.498;13.480;2023-03-01T02:54:08;39.83;;;22.47;;
14681;SDS011;7429;52.498;13.480;2023-03-01T02:57:21;42.57;;;24.10;;
14681;SDS011;7429;52.498;13.480;2023-03-01T03:00:28;39.70;;;22.27;;
14681;SDS011;7429;52.498;13.480;2023-03-01T03:03:37;42.90;;;25.23;;
14681;SDS011;7429;52.498;13.480;2023-03-01T03:06:41;45.83;;;24.37;;
14681;SDS011;7429;52.498;13.480;2023-03-01T03:09:44;42.30;;;23.97;;
14681;SDS011;7429;52.498;13.480;2023-03-01T03:12:51;36.13;;;23.53;;
14681;SDS011;7429;52.498;13.480;2023-03-01T03:15:57;37.03;;;23.17;;
14681;SDS011;7429;52.498;13.480;2023-03-01T03:19:00;39.03;;;22.70;;
14681;SDS011;7429;52.498;13.480;2023-03-01T03:22:06;41.67;;;23.13;;
14681;SDS011;7429;52.498;13.480;2023-03-01T03:25:10;39.33;;;24.23;;
14681;SDS011;7429;52.498;13.480;2023-03-01T03:28:13;39.10;;;23.77;;
14681;SDS011;7429;52.498;13.480;2023-03-01T03:31:18;39.37;;;25.10;;
14681;SDS011;7429;52.498;13.480;2023-03-01T03:34:21;42.57;;;24.43;;
14681;SDS011;7429;52.498;13.480;2023-03-01T03:37:25;43.00;;;24.40;;
14681;SDS011;7429;52.498;13.480;2023-03-01T03:40:46;35.87;;;24.83;;
14681;SDS011;7429;52.498;13.480;2023-03-01T03:43:51;34.07;;;22.93;;
14681;SDS011;7429;52.498;13.480;2023-03-01T03:46:56;40.83;;;26.53;;
14681;SDS011;7429;52.498;13.480;2023-03-01T03:49:59;43.77;;;24.20;;
14681;SDS011;7429;52.498;13.480;2023-03-01T03:53:03;42.63;;;24.47;;
14681;SDS011;7429;52.498;13.480;2023-03-01T03:56:09;39.87;;;25.13;;
14681;SDS011;7429;52.498;13.480;2023-03-01T03:59:12;38.73;;;23.17;;
14681;SDS011;7429;52.498;13.480;2023-03-01T04:02:17;40.07;;;24.20;;
14681;SDS011;7429;52.498;13.480;2023-03-01T04:05:23;42.30;;;23.60;;
14681;SDS011;7429;52.498;13.480;2023-03-01T04:08:27;36.67;;;22.90;;
14681;SDS011;7429;52.498;13.480;2023-03-01T04:11:30;37.70;;;23.93;;
14681;SDS011;7429;52.498;13.480;2023-03-01T04:14:36;35.17;;;22.67;;
14681;SDS011;7429;52.498;13.480;2023-03-01T04:17:40;35.57;;;22.80;;
14681;SDS011;7429;52.498;13.480;2023-03-01T04:20:45;40.27;;;24.57;;
14681;SDS011;7429;52.498;13.480;2023-03-01T04:23:53;38.83;;;23.60;;
14681;SDS011;7429;52.498;13.480;2023-03-01T04:26:56;36.73;;;22.77;;
14681;SDS011;7429;52.498;13.480;2023-03-01T04:29:59;35.33;;;22.40;;
14681;SDS011;7429;52.498;13.480;2023-03-01T04:33:04;38.53;;;22.47;;
14681;SDS011;7429;52.498;13.480;2023-03-01T04:36:09;35.50;;;23.17;;
14681;SDS011;7429;52.498;13.480;2023-03-01T04:39:13;34.57;;;22.97;;
14681;SDS011;7429;52.498;13.480;2023-03-01T04:42:16;39.20;;;23.83;;
14681;SDS011;7429;52.498;13.480;2023-03-01T04:45:20;34.00;;;22.57;;
14681;SDS011;7429;52.498;13.480;2023-03-01T04:48:25;35.70;;;22.10;;
14681;SDS011;7429;52.498;13.480;2023-03-01T04:51:28;33.57;;;20.73;;
14681;SDS011;7429;52.498;13.480;2023-03-01T04:54:33;34.37;;;23.27;;
14681;SDS011;7429;52.498;13.480;2023-03-01T04:57:37;33.27;;;22.17;;
14681;SDS011;7429;52.498;13.480;2023-03-01T05:00:41;35.17;;;22.70;;
14681;SDS011;7429;52.498;13.480;2023-03-01T05:03:46;39.80;;;23.33;;
14681;SDS011;7429;52.498;13.480;2023-03-01T05:06:50;33.07;;;22.27;;
14681;SDS011;7429;52.498;13.480;2023-03-01T05:09:54;31.70;;;20.93;;
14681;SDS011;7429;52.498;13.480;2023-03-01T05:12:58;32.73;;;20.40;;
14681;SDS011;7429;52.498;13.480;2023-03-01T05:16:02;37.37;;;23.37;;
14681;SDS011;7429;52.498;13.480;2023-03-01T05:19:09;38.30;;;21.27;;
14681;SDS011;7429;52.498;13.480;2023-03-01T05:22:16;31.63;;;20.07;;
14681;SDS011;7429;52.498;13.480;2023-03-01T05:25:20;29.83;;;20.33;;
14681;SDS011;7429;52.498;13.480;2023-03-01T05:28:24;36.17;;;21.33;;
14681;SDS011;7429;52.498;13.480;2023-03-01T05:31:27;32.40;;;21.13;;
14681;SDS011;7429;52.498;13.480;2023-03-01T05:34:35;28.67;;;18.97;;
14681;SDS011;7429;52.498;13.480;2023-03-01T05:37:40;30.23;;;20.47;;
14681;SDS011;7429;52.498;13.480;2023-03-01T05:40:44;34.20;;;20.10;;
14681;SDS011;7429;52.498;13.480;2023-03-01T05:43:49;35.93;;;21.93;;
14681;SDS011;7429;52.498;13.480;2023-03-01T05:46:53;32.47;;;21.47;;
14681;SDS011;7429;52.498;13.480;2023-03-01T05:49:57;35.57;;;21.80;;
14681;SDS011;7429;52.498;13.480;2023-03-01T05:53:02;30.97;;;20.40;;
14681;SDS011;7429;52.498;13.480;2023-03-01T05:56:08;35.67;;;21.63;;
14681;SDS011;7429;52.498;13.480;2023-03-01T05:59:12;35.80;;;23.60;;
14681;SDS011;7429;52.498;13.480;2023-03-01T06:02:17;31.07;;;20.90;;
14681;SDS011;7429;52.498;13.480;2023-03-01T06:05:22;37.30;;;23.90;;
14681;SDS011;7429;52.498;13.480;2023-03-01T06:08:26;36.90;;;23.33;;
14681;SDS011;7429;52.498;13.480;2023-03-01T06:11:29;40.73;;;23.57;;
14681;SDS011;7429;52.498;13.480;2023-03-01T06:14:32;34.30;;;22.10;;
14681;SDS011;7429;52.498;13.480;2023-03-01T06:17:36;34.30;;;23.00;;
14681;SDS011;7429;52.498;13.480;2023-03-01T06:20:43;38.60;;;23.23;;
14681;SDS011;7429;52.498;13.480;2023-03-01T06:23:46;35.57;;;23.27;;
14681;SDS011;7429;52.498;13.480;2023-03-01T06:26:49;32.37;;;22.37;;
14681;SDS011;7429;52.498;13.480;2023-03-01T06:29:53;34.73;;;23.17;;
14681;SDS011;7429;52.498;13.480;2023-03-01T06:32:56;36.90;;;23.63;;
14681;SDS011;7429;52.498;13.480;2023-03-01T06:36:04;36.60;;;24.27;;
14681;SDS011;7429;52.498;13.480;2023-03-01T06:39:08;34.37;;;23.50;;
14681;SDS011;7429;52.498;13.480;2023-03-01T06:42:11;34.83;;;23.33;;
14681;SDS011;7429;52.498;13.480;2023-03-01T06:45:15;40.90;;;24.50;;
14681;SDS011;7429;52.498;13.480;2023-03-01T06:48:19;42.83;;;24.00;;
14681;SDS011;7429;52.498;13.480;2023-03-01T06:51:24;40.67;;;23.73;;
14681;SDS011;7429;52.498;13.480;2023-03-01T06:54:28;40.30;;;25.07;;
14681;SDS011;7429;52.498;13.480;2023-03-01T06:57:31;39.67;;;23.93;;
14681;SDS011;7429;52.498;13.480;2023-03-01T07:00:34;38.93;;;22.37;;
14681;SDS011;7429;52.498;13.480;2023-03-01T07:03:37;38.93;;;24.73;;
14681;SDS011;7429;52.498;13.480;2023-03-01T07:06:42;42.10;;;24.80;;
14681;SDS011;7429;52.498;13.480;2023-03-01T07:09:45;41.83;;;23.20;;
14681;SDS011;7429;52.498;13.480;2023-03-01T07:12:48;31.00;;;22.37;;
14681;SDS011;7429;52.498;13.480;2023-03-01T07:15:51;38.33;;;22.57;;
14681;SDS011;7429;52.498;13.480;2023-03-01T07:18:54;37.10;;;22.07;;
14681;SDS011;7429;52.498;13.480;2023-03-01T07:22:01;37.60;;;24.83;;
14681;SDS011;7429;52.498;13.480;2023-03-01T07:25:06;33.70;;;21.63;;
14681;SDS011;7429;52.498;13.480;2023-03-01T07:28:10;40.27;;;21.53;;
14681;SDS011;7429;52.498;13.480;2023-03-01T07:31:13;37.87;;;22.13;;
14681;SDS011;7429;52.498;13.480;2023-03-01T07:34:16;37.37;;;22.00;;
14681;SDS011;7429;52.498;13.480;2023-03-01T07:37:20;39.23;;;23.30;;
14681;SDS011;7429;52.498;13.480;2023-03-01T07:40:23;33.27;;;21.47;;
14681;SDS011;7429;52.498;13.480;2023-03-01T07:43:27;43.97;;;22.77;;
14681;SDS011;7429;52.498;13.480;2023-03-01T07:46:30;37.67;;;22.90;;
14681;SDS011;7429;52.498;13.480;2023-03-01T07:49:34;45.50;;;25.87;;
14681;SDS011;7429;52.498;13.480;2023-03-01T07:52:39;44.33;;;25.50;;
14681;SDS011;7429;52.498;13.480;2023-03-01T07:55:42;39.23;;;24.73;;
14681;SDS011;7429;52.498;13.480;2023-03-01T07:58:45;39.50;;;25.43;;
14681;SDS011;7429;52.498;13.480;2023-03-01T08:01:51;41.40;;;24.47;;
14681;SDS011;7429;52.498;13.480;2023-03-01T08:04:54;36.70;;;24.33;;
14681;SDS011;7429;52.498;13.480;2023-03-01T08:07:59;39.67;;;25.40;;
14681;SDS011;7429;52.498;13.480;2023-03-01T08:11:02;38.30;;;24.07;;
14681;SDS011;7429;52.498;13.480;2023-03-01T08:14:08;37.17;;;23.30;;
14681;SDS011;7429;52.498;13.480;2023-03-01T08:17:13;34.93;;;23.93;;
14681;SDS011;7429;52.498;13.480;2023-03-01T08:20:16;41.10;;;24.23;;
14681;SDS011;7429;52.498;13.480;2023-03-01T08:23:21;38.43;;;23.67;;
14681;SDS011;7429;52.498;13.480;2023-03-01T08:26:25;39.63;;;26.20;;
14681;SDS011;7429;52.498;13.480;2023-03-01T08:29:28;35.03;;;24.17;;
14681;SDS011;7429;52.498;13.480;2023-03-01T08:32:35;39.53;;;23.53;;
14681;SDS011;7429;52.498;13.480;2023-03-01T08:35:39;36.10;;;23.03;;
14681;SDS011;7429;52.498;13.480;2023-03-01T08:38:44;30.30;;;21.20;;
14681;SDS011;7429;52.498;13.480;2023-03-01T08:41:47;35.17;;;23.20;;
14681;SDS011;7429;52.498;13.480;2023-03-01T08:44:51;34.73;;;23.70;;
14681;SDS011;7429;52.498;13.480;2023-03-01T08:47:54;39.13;;;24.10;;
14681;SDS011;7429;52.498;13.480;2023-03-01T08:50:57;31.40;;;19.67;;
14681;SDS011;7429;52.498;13.480;2023-03-01T08:54:11;31.63;;;20.47;;
14681;SDS011;7429;52.498;13.480;2023-03-01T08:57:16;28.97;;;20.00;;
14681;SDS011;7429;52.498;13.480;2023-03-01T09:00:19;39.07;;;21.13;;
14681;SDS011;7429;52.498;13.480;2023-03-01T09:03:24;28.67;;;19.53;;
14681;SDS011;7429;52.498;13.480;2023-03-01T09:06:29;26.33;;;17.37;;
14681;SDS011;7429;52.498;13.480;2023-03-01T09:09:35;25.50;;;17.23;;
14681;SDS011;7429;52.498;13.480;2023-03-01T09:12:39;21.80;;;16.73;;
14681;SDS011;7429;52.498;13.480;2023-03-01T09:15:42;28.73;;;16.70;;
14681;SDS011;7429;52.498;13.480;2023-03-01T09:18:48;23.93;;;15.53;;
14681;SDS011;7429;52.498;13.480;2023-03-01T09:21:52;30.00;;;16.23;;
14681;SDS011;7429;52.498;13.480;2023-03-01T09:24:58;22.00;;;14.47;;
14681;SDS011;7429;52.498;13.480;2023-03-01T09:28:01;17.37;;;13.60;;
14681;SDS011;7429;52.498;13.480;2023-03-01T09:31:04;17.40;;;13.90;;
14681;SDS011;7429;52.498;13.480;2023-03-01T09:34:08;20.00;;;14.03;;
14681;SDS011;7429;52.498;13.480;2023-03-01T09:37:12;18.33;;;12.57;;
14681;SDS011;7429;52.498;13.480;2023-03-01T09:40:19;20.83;;;13.23;;
14681;SDS011;7429;52.498;13.480;2023-03-01T09:43:26;18.30;;;11.43;;
14681;SDS011;7429;52.498;13.480;2023-03-01T09:46:41;13.97;;;10.37;;
14681;SDS011;7429;52.498;13.480;2023-03-01T09:49:48;11.03;;;9.40;;
14681;SDS011;7429;52.498;13.480;2023-03-01T09:53:01;13.27;;;8.97;;
14681;SDS011;7429;52.498;13.480;2023-03-01T09:56:11;9.60;;;7.70;;
14681;SDS011;7429;52.498;13.480;2023-03-01T09:59:23;11.57;;;7.97;;
14681;SDS011;7429;52.498;13.480;2023-03-01T10:02:35;11.47;;;7.67;;
14681;SDS011;7429;52.498;13.480;2023-03-01T10:05:47;10.00;;;7.60;;
14681;SDS011;7429;52.498;13.480;2023-03-01T10:09:00;9.63;;;8.63;;
14681;SDS011;7429;52.498;13.480;2023-03-01T10:12:15;8.83;;;7.13;;
14681;SDS011;7429;52.498;13.480;2023-03-01T10:15:25;8.33;;;7.47;;
14681;SDS011;7429;52.498;13.480;2023-03-01T10:18:38;6.83;;;6.13;;
14681;SDS011;7429;52.498;13.480;2023-03-01T10:21:45;10.07;;;6.83;;
14681;SDS011;7429;52.498;13.480;2023-03-01T10:24:48;10.73;;;7.30;;
14681;SDS011;7429;52.498;13.480;2023-03-01T10:27:58;10.50;;;6.90;;
14681;SDS011;7429;52.498;13.480;2023-03-01T10:31:05;9.07;;;7.50;;
14681;SDS011;7429;52.498;13.480;2023-03-01T10:34:15;10.00;;;7.43;;
14681;SDS011;7429;52.498;13.480;2023-03-01T10:37:21;23.37;;;14.63;;
14681;SDS011;7429;52.498;13.480;2023-03-01T10:40:26;14.07;;;6.63;;
14681;SDS011;7429;52.498;13.480;2023-03-01T10:43:32;11.10;;;6.63;;
14681;SDS011;7429;52.498;13.480;2023-03-01T10:46:47;10.63;;;6.50;;
14681;SDS011;7429;52.498;13.480;2023-03-01T10:50:04;11.00;;;6.43;;
14681;SDS011;7429;52.498;13.480;2023-03-01T10:53:24;10.87;;;7.27;;
14681;SDS011;7429;52.498;13.480;2023-03-01T10:56:30;11.13;;;6.50;;
14681;SDS011;7429;52.498;13.480;2023-03-01T10:59:53;7.40;;;6.27;;
14681;SDS011;7429;52.498;13.480;2023-03-01T11:03:24;7.23;;;6.10;;
14681;SDS011;7429;52.498;13.480;2023-03-01T11:06:29;6.63;;;5.90;;
14681;SDS011;7429;52.498;13.480;2023-03-01T11:09:33;10.93;;;5.73;;
14681;SDS011;7429;52.498;13.480;2023-03-01T11:12:38;5.80;;;5.17;;
14681;SDS011;7429;52.498;13.480;2023-03-01T11:15:43;6.27;;;5.60;;
14681;SDS011;7429;52.498;13.480;2023-03-01T11:19:16;9.93;;;6.10;;
14681;SDS011;7429;52.498;13.480;2023-03-01T11:22:22;7.13;;;5.70;;
14681;SDS011;7429;52.498;13.480;2023-03-01T11:25:26;5.27;;;4.77;;
14681;SDS011;7429;52.498;13.480;2023-03-01T11:28:35;6.67;;;4.83;;
14681;SDS011;7429;52.498;13.480;2023-03-01T11:31:44;7.43;;;6.13;;
14681;SDS011;7429;52.498;13.480;2023-03-01T11:34:59;6.87;;;5.53;;
14681;SDS011;7429;52.498;13.480;2023-03-01T11:38:15;7.27;;;5.57;;
14681;SDS011;7429;52.498;13.480;2023-03-01T11:41:25;7.97;;;5.83;;
14681;SDS011;7429;52.498;13.480;2023-03-01T11:44:33;10.20;;;4.90;;
14681;SDS011;7429;52.498;13.480;2023-03-01T11:47:47;7.67;;;5.70;;
14681;SDS011;7429;52.498;13.480;2023-03-01T11:51:12;7.83;;;5.50;;
14681;SDS011;7429;52.498;13.480;2023-03-01T11:54:28;5.20;;;4.47;;
14681;SDS011;7429;52.498;13.480;2023-03-01T11:57:55;7.87;;;5.10;;
14681;SDS011;7429;52.498;13.480;2023-03-01T12:01:19;5.67;;;4.70;;
14681;SDS011;7429;52.498;13.480;2023-03-01T12:08:28;6.30;;;4.90;;
14681;SDS011;7429;52.498;13.480;2023-03-01T12:11:41;9.07;;;4.60;;
14681;SDS011;7429;52.498;13.480;2023-03-01T12:15:06;5.63;;;4.43;;
14681;SDS011;7429;52.498;13.480;2023-03-01T12:22:17;10.23;;;4.83;;
14681;SDS011;7429;52.498;13.480;2023-03-01T12:25:33;4.73;;;3.83;;
14681;SDS011;7429;52.498;13.480;2023-03-01T12:32:18;7.27;;;4.20;;
14681;SDS011;7429;52.498;13.480;2023-03-01T12:39:36;4.70;;;4.13;;
14681;SDS011;7429;52.498;13.480;2023-03-01T12:42:55;5.20;;;4.43;;
14681;SDS011;7429;52.498;13.480;2023-03-01T12:46:20;5.67;;;4.10;;
14681;SDS011;7429;52.498;13.480;2023-03-01T12:49:36;6.77;;;4.90;;
14681;SDS011;7429;52.498;13.480;2023-03-01T12:52:43;4.27;;;3.87;;
14681;SDS011;7429;52.498;13.480;2023-03-01T12:55:53;6.13;;;4.80;;
14681;SDS011;7429;52.498;13.480;2023-03-01T12:59:02;4.80;;;4.17;;
14681;SDS011;7429;52.498;13.480;2023-03-01T13:02:15;7.40;;;4.30;;
14681;SDS011;7429;52.498;13.480;2023-03-01T13:05:29;5.43;;;4.50;;
14681;SDS011;7429;52.498;13.480;2023-03-01T13:08:42;6.27;;;4.13;;
14681;SDS011;7429;52.498;13.480;2023-03-01T13:11:53;4.47;;;4.07;;
14681;SDS011;7429;52.498;13.480;2023-03-01T13:14:56;5.50;;;4.03;;
14681;SDS011;7429;52.498;13.480;2023-03-01T13:17:59;5.37;;;3.80;;
14681;SDS011;7429;52.498;13.480;2023-03-01T13:21:05;5.33;;;4.10;;
14681;SDS011;7429;52.498;13.480;2023-03-01T13:24:25;4.40;;;3.67;;
14681;SDS011;7429;52.498;13.480;2023-03-01T13:27:31;6.13;;;4.20;;
14681;SDS011;7429;52.498;13.480;2023-03-01T13:30:38;5.80;;;3.77;;
14681;SDS011;7429;52.498;13.480;2023-03-01T13:33:44;7.17;;;4.07;;
14681;SDS011;7429;52.498;13.480;2023-03-01T13:36:49;4.33;;;3.93;;
14681;SDS011;7429;52.498;13.480;2023-03-01T13:39:52;4.43;;;4.03;;
14681;SDS011;7429;52.498;13.480;2023-03-01T13:42:56;6.83;;;4.43;;
14681;SDS011;7429;52.498;13.480;2023-03-01T13:46:28;13.37;;;4.70;;
14681;SDS011;7429;52.498;13.480;2023-03-01T13:49:35;6.63;;;4.97;;
14681;SDS011;7429;52.498;13.480;2023-03-01T13:52:48;4.60;;;3.70;;
14681;SDS011;7429;52.498;13.480;2023-03-01T13:56:00;6.50;;;4.77;;
14681;SDS011;7429;52.498;13.480;2023-03-01T13:59:14;6.50;;;4.87;;
14681;SDS011;7429;52.498;13.480;2023-03-01T14:02:18;4.57;;;4.17;;
14681;SDS011;7429;52.498;13.480;2023-03-01T14:05:21;5.07;;;4.67;;
14681;SDS011;7429;52.498;13.480;2023-03-01T14:08:26;5.23;;;4.73;;
14681;SDS011;7429;52.498;13.480;2023-03-01T14:11:40;8.30;;;4.93;;
14681;SDS011;7429;52.498;13.480;2023-03-01T14:15:04;7.67;;;4.80;;
14681;SDS011;7429;52.498;13.480;2023-03-01T14:18:12;5.10;;;4.60;;
14681;SDS011;7429;52.498;13.480;2023-03-01T14:21:22;8.40;;;4.77;;
14681;SDS011;7429;52.498;13.480;2023-03-01T14:24:27;5.40;;;4.87;;
14681;SDS011;7429;52.498;13.480;2023-03-01T14:27:33;5.37;;;4.63;;
14681;SDS011;7429;52.498;13.480;2023-03-01T14:30:45;6.33;;;4.73;;
14681;SDS011;7429;52.498;13.480;2023-03-01T14:33:54;5.10;;;3.70;;
14681;SDS011;7429;52.498;13.480;2023-03-01T14:37:09;5.23;;;4.73;;
14681;SDS011;7429;52.498;13.480;2023-03-01T14:40:19;5.40;;;4.23;;
14681;SDS011;7429;52.498;13.480;2023-03-01T14:43:28;6.13;;;4.87;;
14681;SDS011;7429;52.498;13.480;2023-03-01T14:46:35;6.20;;;4.77;;
14681;SDS011;7429;52.498;13.480;2023-03-01T14:49:40;9.83;;;4.67;;
14681;SDS011;7429;52.498;13.480;2023-03-01T14:52:46;6.37;;;5.40;;
14681;SDS011;7429;52.498;13.480;2023-03-01T14:55:54;8.17;;;4.87;;
14681;SDS011;7429;52.498;13.480;2023-03-01T14:59:01;6.30;;;4.47;;
14681;SDS011;7429;52.498;13.480;2023-03-01T15:02:10;5.70;;;4.50;;
14681;SDS011;7429;52.498;13.480;2023-03-01T15:05:20;6.33;;;5.50;;
14681;SDS011;7429;52.498;13.480;2023-03-01T15:08:28;6.03;;;4.80;;
14681;SDS011;7429;52.498;13.480;2023-03-01T15:11:34;4.70;;;4.17;;
14681;SDS011;7429;52.498;13.480;2023-03-01T15:14:41;6.07;;;4.00;;
14681;SDS011;7429;52.498;13.480;2023-03-01T15:18:06;5.00;;;4.13;;
14681;SDS011;7429;52.498;13.480;2023-03-01T15:21:20;3.90;;;3.60;;
14681;SDS011;7429;52.498;13.480;2023-03-01T15:24:25;6.30;;;4.20;;
14681;SDS011;7429;52.498;13.480;2023-03-01T15:27:30;5.00;;;3.90;;
14681;SDS011;7429;52.498;13.480;2023-03-01T15:30:34;6.33;;;4.03;;
14681;SDS011;7429;52.498;13.480;2023-03-01T15:33:41;4.53;;;4.13;;
14681;SDS011;7429;52.498;13.480;2023-03-01T15:36:49;6.23;;;3.83;;
14681;SDS011;7429;52.498;13.480;2023-03-01T15:39:54;4.67;;;4.37;;
14681;SDS011;7429;52.498;13.480;2023-03-01T15:42:59;8.27;;;4.03;;
14681;SDS011;7429;52.498;13.480;2023-03-01T15:46:02;3.90;;;3.50;;
14681;SDS011;7429;52.498;13.480;2023-03-01T15:49:24;4.17;;;3.67;;
14681;SDS011;7429;52.498;13.480;2023-03-01T15:52:53;4.27;;;3.87;;
14681;SDS011;7429;52.498;13.480;2023-03-01T15:55:58;5.23;;;3.70;;
14681;SDS011;7429;52.498;13.480;2023-03-01T15:59:01;6.83;;;3.70;;
14681;SDS011;7429;52.498;13.480;2023-03-01T16:02:08;4.23;;;3.87;;
14681;SDS011;7429;52.498;13.480;2023-03-01T16:05:18;3.57;;;3.27;;
14681;SDS011;7429;52.498;13.480;2023-03-01T16:08:24;6.17;;;3.93;;
14681;SDS011;7429;52.498;13.480;2023-03-01T16:11:27;5.33;;;3.97;;
14681;SDS011;7429;52.498;13.480;2023-03-01T16:14:32;7.57;;;5.07;;
14681;SDS011;7429;52.498;13.480;2023-03-01T16:17:35;6.83;;;4.80;;
14681;SDS011;7429;52.498;13.480;2023-03-01T16:20:39;6.67;;;4.60;;
14681;SDS011;7429;52.498;13.480;2023-03-01T16:23:43;6.87;;;4.53;;
14681;SDS011;7429;52.498;13.480;2023-03-01T16:26:47;5.97;;;5.00;;
14681;SDS011;7429;52.498;13.480;2023-03-01T16:29:50;5.37;;;4.30;;
14681;SDS011;7429;52.498;13.480;2023-03-01T16:32:53;7.67;;;4.73;;
14681;SDS011;7429;52.498;13.480;2023-03-01T16:35:58;6.90;;;5.17;;
14681;SDS011;7429;52.498;13.480;2023-03-01T16:39:03;4.97;;;4.47;;
14681;SDS011;7429;52.498;13.480;2023-03-01T16:42:08;5.30;;;4.63;;
14681;SDS011;7429;52.498;13.480;2023-03-01T16:45:11;6.13;;;5.23;;
14681;SDS011;7429;52.498;13.480;2023-03-01T16:48:25;6.63;;;5.43;;
14681;SDS011;7429;52.498;13.480;2023-03-01T16:51:29;7.10;;;5.07;;
14681;SDS011;7429;52.498;13.480;2023-03-01T16:54:35;10.33;;;5.53;;
14681;SDS011;7429;52.498;13.480;2023-03-01T16:57:39;7.43;;;5.70;;
14681;SDS011;7429;52.498;13.480;2023-03-01T17:00:43;7.70;;;6.20;;
14681;SDS011;7429;52.498;13.480;2023-03-01T17:03:46;9.50;;;5.70;;
14681;SDS011;7429;52.498;13.480;2023-03-01T17:06:53;9.63;;;6.23;;
14681;SDS011;7429;52.498;13.480;2023-03-01T17:09:56;8.53;;;6.20;;
14681;SDS011;7429;52.498;13.480;2023-03-01T17:12:59;7.90;;;6.07;;
14681;SDS011;7429;52.498;13.480;2023-03-01T17:16:02;8.97;;;6.30;;
14681;SDS011;7429;52.498;13.480;2023-03-01T17:19:07;9.40;;;6.13;;
14681;SDS011;7429;52.498;13.480;2023-03-01T17:22:12;10.03;;;5.83;;
14681;SDS011;7429;52.498;13.480;2023-03-01T17:25:15;8.10;;;6.10;;
14681;SDS011;7429;52.498;13.480;2023-03-01T17:28:18;8.70;;;6.17;;
14681;SDS011;7429;52.498;13.480;2023-03-01T17:31:22;6.67;;;6.03;;
14681;SDS011;7429;52.498;13.480;2023-03-01T17:34:25;10.50;;;6.20;;
14681;SDS011;7429;52.498;13.480;2023-03-01T17:37:30;9.37;;;6.37;;
14681;SDS011;7429;52.498;13.480;2023-03-01T17:40:34;8.33;;;6.17;;
14681;SDS011;7429;52.498;13.480;2023-03-01T17:43:40;10.43;;;5.93;;
14681;SDS011;7429;52.498;13.480;2023-03-01T17:46:43;10.03;;;6.80;;
14681;SDS011;7429;52.498;13.480;2023-03-01T17:49:46;9.83;;;7.00;;
14681;SDS011;7429;52.498;13.480;2023-03-01T17:52:50;10.07;;;7.03;;
14681;SDS011;7429;52.498;13.480;2023-03-01T17:55:58;15.70;;;7.43;;
14681;SDS011;7429;52.498;13.480;2023-03-01T17:59:03;12.77;;;7.97;;
14681;SDS011;7429;52.498;13.480;2023-03-01T18:02:08;14.60;;;8.23;;
14681;SDS011;7429;52.498;13.480;2023-03-01T18:05:13;11.73;;;7.37;;
14681;SDS011;7429;52.498;13.480;2023-03-01T18:08:17;16.03;;;8.93;;
14681;SDS011;7429;52.498;13.480;2023-03-01T18:11:21;10.67;;;7.73;;
14681;SDS011;7429;52.498;13.480;2023-03-01T18:14:25;15.90;;;8.30;;
14681;SDS011;7429;52.498;13.480;2023-03-01T18:17:34;16.93;;;9.17;;
14681;SDS011;7429;52.498;13.480;2023-03-01T18:20:37;16.10;;;9.50;;
14681;SDS011;7429;52.498;13.480;2023-03-01T18:23:42;19.70;;;9.10;;
14681;SDS011;7429;52.498;13.480;2023-03-01T18:26:45;13.80;;;9.13;;
14681;SDS011;7429;52.498;13.480;2023-03-01T18:29:48;16.10;;;8.60;;
14681;SDS011;7429;52.498;13.480;2023-03-01T18:32:51;15.37;;;10.20;;
14681;SDS011;7429;52.498;13.480;2023-03-01T18:35:56;25.83;;;14.63;;
14681;SDS011;7429;52.498;13.480;2023-03-01T18:39:01;27.33;;;18.07;;
14681;SDS011;7429;52.498;13.480;2023-03-01T18:42:05;32.10;;;20.17;;